Time;durP1;ratioP1;P1;durP2;ratioP2;P2;SDS_P1;SDS_P2;PMS_P1;PMS_P2;Temp;Humidity;BMP_temperature;BMP_pressure;BME280_temperature;BME280_humidity;BME280_pressure;Samples;Min_cycle;Max_cycle;Signal;HPM_P1;HPM_P2
2023/04/13 00:01:12;;;;;;;1.9;1.8;;;;;;;;;;;;;
2023/04/13 00:03:46;;;;;;;1.9;1.6;;;;;;;;;;;;;
2023/04/13 00:06:12;;;;;;;2;1.4;;;;;;;;;;;;;
2023/04/13 00:08:37;;;;;;;1.5;1.4;;;;;;;;;;;;;
2023/04/13 00:11:05;;;;;;;1.3;1;;;;;;;;;;;;;
2023/04/13 00:13:29;;;;;;;2;1;;;;;;;;;;;;;
2023/04/13 00:15:55;;;;;;;1.4;0.8;;;;;;;;;;;;;
2023/04/13 00:18:20;;;;;;;1.1;0.8;;;;;;;;;;;;;
2023/04/13 00:20:46;;;;;;;0.9;0.4;;;;;;;;;;;;;
2023/04/13 00:23:11;;;;;;;2.6;1.2;;;;;;;;;;;;;
2023/04/13 00:25:36;;;;;;;1.6;1.3;;;;;;;;;;;;;
2023/04/13 00:28:05;;;;;;;1.1;1;;;;;;;;;;;;;
2023/04/13 00:30:26;;;;;;;0.4;0.4;;;;;;;;;;;;;
2023/04/13 00:32:52;;;;;;;0.3;0.3;;;;;;;;;;;;;
2023/04/13 00:35:17;;;;;;;1.3;0.3;;;;;;;;;;;;;
2023/04/13 00:37:43;;;;;;;0.1;0.1;;;;;;;;;;;;;
2023/04/13 00:40:08;;;;;;;0.7;0.2;;;;;;;;;;;;;
2023/04/13 00:42:34;;;;;;;0.2;0.2;;;;;;;;;;;;;
2023/04/13 00:44:59;;;;;;;0.1;0.1;;;;;;;;;;;;;
2023/04/13 00:47:25;;;;;;;0.3;0.1;;;;;;;;;;;;;
2023/04/13 00:49:49;;;;;;;0.1;0.1;;;;;;;;;;;;;
2023/04/13 00:52:15;;;;;;;0.6;0.1;;;;;;;;;;;;;
2023/04/13 00:54:40;;;;;;;0.1;0.1;;;;;;;;;;;;;
2023/04/13 00:57:05;;;;;;;0.1;0.1;;;;;;;;;;;;;
2023/04/13 00:59:30;;;;;;;0.1;0.1;;;;;;;;;;;;;
2023/04/13 01:01:57;;;;;;;0.1;0.1;;;;;;;;;;;;;
2023/04/13 01:04:22;;;;;;;0;0;;;;;;;;;;;;;
2023/04/13 01:06:49;;;;;;;0.1;0.1;;;;;;;;;;;;;
2023/04/13 01:09:12;;;;;;;0.3;0.2;;;;;;;;;;;;;
2023/04/13 01:11:38;;;;;;;0.1;0.1;;;;;;;;;;;;;
2023/04/13 01:14:04;;;;;;;1.1;0.2;;;;;;;;;;;;;
2023/04/13 01:16:31;;;;;;;0.1;0.1;;;;;;;;;;;;;
2023/04/13 01:18:56;;;;;;;0.3;0.1;;;;;;;;;;;;;
2023/04/13 01:21:23;;;;;;;0.2;0.2;;;;;;;;;;;;;
2023/04/13 01:23:47;;;;;;;0.1;0.1;;;;;;;;;;;;;
2023/04/13 01:26:13;;;;;;;0.1;0.1;;;;;;;;;;;;;
2023/04/13 01:28:37;;;;;;;0.2;0.2;;;;;;;;;;;;;
2023/04/13 01:31:04;;;;;;;0.4;0.3;;;;;;;;;;;;;
2023/04/13 01:33:29;;;;;;;0.2;0.2;;;;;;;;;;;;;
2023/04/13 01:35:55;;;;;;;0.8;0.3;;;;;;;;;;;;;
2023/04/13 01:38:19;;;;;;;0.2;0.2;;;;;;;;;;;;;
2023/04/13 01:40:46;;;;;;;0.2;0.2;;;;;;;;;;;;;
2023/04/13 01:43:11;;;;;;;0.2;0.2;;;;;;;;;;;;;
2023/04/13 01:45:36;;;;;;;0.3;0.3;;;;;;;;;;;;;
2023/04/13 01:48:01;;;;;;;0.2;0.2;;;;;;;;;;;;;
2023/04/13 01:50:27;;;;;;;0.2;0.2;;;;;;;;;;;;;
2023/04/13 01:52:52;;;;;;;0.3;0.2;;;;;;;;;;;;;
2023/04/13 01:55:17;;;;;;;0.2;0.2;;;;;;;;;;;;;
2023/04/13 01:57:46;;;;;;;0.3;0.3;;;;;;;;;;;;;
2023/04/13 02:00:10;;;;;;;0.4;0.2;;;;;;;;;;;;;
2023/04/13 02:02:34;;;;;;;0.2;0.2;;;;;;;;;;;;;
2023/04/13 02:04:59;;;;;;;0.1;0.1;;;;;;;;;;;;;
2023/04/13 02:07:25;;;;;;;0.3;0.3;;;;;;;;;;;;;
2023/04/13 02:09:50;;;;;;;0.2;0.2;;;;;;;;;;;;;
2023/04/13 02:12:17;;;;;;;1.6;0.3;;;;;;;;;;;;;
2023/04/13 02:14:42;;;;;;;0.4;0.3;;;;;;;;;;;;;
2023/04/13 02:17:08;;;;;;;0.2;0.2;;;;;;;;;;;;;
2023/04/13 02:19:33;;;;;;;0.3;0.3;;;;;;;;;;;;;
2023/04/13 02:22:00;;;;;;;0.2;0.2;;;;;;;;;;;;;
2023/04/13 02:24:24;;;;;;;0.2;0.2;;;;;;;;;;;;;
2023/04/13 02:26:49;;;;;;;0.2;0.2;;;;;;;;;;;;;
2023/04/13 02:29:15;;;;;;;0.9;0.3;;;;;;;;;;;;;
2023/04/13 02:31:43;;;;;;;0.4;0.2;;;;;;;;;;;;;
2023/04/13 02:34:07;;;;;;;0.6;0.4;;;;;;;;;;;;;
2023/04/13 02:36:33;;;;;;;0.3;0.3;;;;;;;;;;;;;
2023/04/13 02:38:59;;;;;;;0.1;0.1;;;;;;;;;;;;;
2023/04/13 02:41:23;;;;;;;0.3;0.2;;;;;;;;;;;;;
2023/04/13 02:43:48;;;;;;;0.3;0.2;;;;;;;;;;;;;
2023/04/13 02:46:13;;;;;;;0.6;0.2;;;;;;;;;;;;;
2023/04/13 02:48:38;;;;;;;0.2;0.2;;;;;;;;;;;;;
2023/04/13 02:51:04;;;;;;;0.3;0.2;;;;;;;;;;;;;
2023/04/13 02:53:29;;;;;;;0.2;0.2;;;;;;;;;;;;;
2023/04/13 02:55:55;;;;;;;0.6;0.3;;;;;;;;;;;;;
2023/04/13 02:58:22;;;;;;;0.4;0.2;;;;;;;;;;;;;
2023/04/13 03:00:47;;;;;;;0.3;0.3;;;;;;;;;;;;;
2023/04/13 03:03:11;;;;;;;0.2;0.2;;;;;;;;;;;;;
2023/04/13 03:05:39;;;;;;;0.3;0.3;;;;;;;;;;;;;
2023/04/13 03:08:04;;;;;;;0.3;0.3;;;;;;;;;;;;;
2023/04/13 03:10:31;;;;;;;0.3;0.3;;;;;;;;;;;;;
2023/04/13 03:12:56;;;;;;;0.4;0.4;;;;;;;;;;;;;
2023/04/13 03:15:22;;;;;;;0.3;0.3;;;;;;;;;;;;;
2023/04/13 03:17:47;;;;;;;0.3;0.2;;;;;;;;;;;;;
2023/04/13 03:20:15;;;;;;;0.2;0.2;;;;;;;;;;;;;
2023/04/13 03:22:38;;;;;;;0.3;0.3;;;;;;;;;;;;;
2023/04/13 03:25:04;;;;;;;0.4;0.3;;;;;;;;;;;;;
2023/04/13 03:27:29;;;;;;;0.3;0.3;;;;;;;;;;;;;
2023/04/13 03:29:54;;;;;;;0.4;0.3;;;;;;;;;;;;;
2023/04/13 03:32:20;;;;;;;0.4;0.4;;;;;;;;;;;;;
2023/04/13 03:34:45;;;;;;;0.8;0.4;;;;;;;;;;;;;
2023/04/13 03:37:11;;;;;;;0.3;0.3;;;;;;;;;;;;;
2023/04/13 03:39:36;;;;;;;0.4;0.3;;;;;;;;;;;;;
2023/04/13 03:42:02;;;;;;;0.8;0.4;;;;;;;;;;;;;
2023/04/13 03:44:28;;;;;;;0.3;0.3;;;;;;;;;;;;;
2023/04/13 03:46:53;;;;;;;0.6;0.5;;;;;;;;;;;;;
2023/04/13 03:49:19;;;;;;;0.6;0.6;;;;;;;;;;;;;
2023/04/13 03:51:44;;;;;;;0.5;0.5;;;;;;;;;;;;;
2023/04/13 03:54:10;;;;;;;0.7;0.5;;;;;;;;;;;;;
2023/04/13 03:56:35;;;;;;;0.3;0.3;;;;;;;;;;;;;
2023/04/13 03:59:02;;;;;;;0.2;0.2;;;;;;;;;;;;;
2023/04/13 04:02:31;;;;;;;2.1;0.4;;;;;;;5.82;95.43848;928.4124;;;;
2023/04/13 04:04:56;;;;;;;0.7;0.3;;;;;;;5.84;94.67578;928.3897;;;;
2023/04/13 04:07:25;;;;;;;0.4;0.3;;;;;;;5.78;94.61719;928.4772;;;;
2023/04/13 04:09:50;;;;;;;0.3;0.3;;;;;;;5.88;94.58008;928.4185;;;;
2023/04/13 04:12:15;;;;;;;0.5;0.5;;;;;;;5.96;93.81934;928.4386;;;;
2023/04/13 04:14:40;;;;;;;1.4;0.4;;;;;;;5.92;93.13379;928.4556;;;;
2023/04/13 04:18:19;;;;;;;0.5;0.5;;;;;;;5.94;92.07715;928.5214;;;;
2023/04/13 04:20:47;;;;;;;0.3;0.3;;;;;;;6.06;91.44531;928.5008;;;;
2023/04/13 04:23:14;;;;;;;0.9;0.5;;;;;;;6.04;90.75195;928.5433;;;;
2023/04/13 04:25:39;;;;;;;0.9;0.4;;;;;;;6.03;91.06641;928.457;;;;
2023/04/13 04:28:03;;;;;;;0.8;0.3;;;;;;;5.91;91.47266;928.5274;;;;
2023/04/13 04:30:29;;;;;;;0.4;0.4;;;;;;;5.87;91.58789;928.5425;;;;
2023/04/13 04:32:54;;;;;;;0.4;0.4;;;;;;;5.89;93.10449;928.5245;;;;
2023/04/13 04:35:31;;;;;;;0.5;0.5;;;;;;;5.75;94.54102;928.5914;;;;
2023/04/13 04:37:48;;;;;;;0.7;0.7;;;;;;;5.76;94.86133;928.6208;;;;
2023/04/13 04:40:13;;;;;;;1.9;1.7;;;;;;;5.71;94.58984;928.6296;;;;
2023/04/13 04:42:39;;;;;;;0.8;0.8;;;;;;;5.79;93.61426;928.5658;;;;
2023/04/13 04:45:04;;;;;;;1.2;1.1;;;;;;;5.86;93.08594;928.5234;;;;
2023/04/13 04:47:36;;;;;;;0.5;0.5;;;;;;;5.88;92.43457;928.6176;;;;
2023/04/13 04:50:00;;;;;;;1.5;0.3;;;;;;;5.47;87.03223;928.6603;;;;
2023/04/13 04:52:22;;;;;;;0.4;0.4;;;;;;;5.29;89.10449;928.5875;;;;
2023/04/13 04:54:49;;;;;;;0.3;0.3;;;;;;;5.18;89.48828;928.5478;;;;
2023/04/13 04:57:13;;;;;;;0.6;0.5;;;;;;;5.21;89.2002;928.528;;;;
2023/04/13 04:59:39;;;;;;;0.5;0.3;;;;;;;5.39;89.26074;928.5399;;;;
2023/04/13 05:02:03;;;;;;;0.4;0.4;;;;;;;5.24;89.15137;928.5229;;;;
2023/04/13 05:04:30;;;;;;;0.3;0.3;;;;;;;5.28;87.92969;928.5739;;;;
2023/04/13 05:06:54;;;;;;;0.8;0.8;;;;;;;5.34;90.46777;928.5486;;;;
2023/04/13 05:09:22;;;;;;;0.9;0.8;;;;;;;5.31;90.97168;928.688;;;;
2023/04/13 05:11:47;;;;;;;0.4;0.4;;;;;;;5.14;91.4873;928.7264;;;;
2023/04/13 05:14:12;;;;;;;0.8;0.6;;;;;;;5.05;90.93848;928.7583;;;;
2023/04/13 05:16:37;;;;;;;0.6;0.6;;;;;;;4.99;91.9502;928.8408;;;;
2023/04/13 05:19:07;;;;;;;1.4;0.6;;;;;;;4.98;89.54785;928.846;;;;
2023/04/13 05:21:29;;;;;;;0.8;0.5;;;;;;;4.94;92.36719;928.851;;;;
2023/04/13 05:23:57;;;;;;;0.2;0.2;;;;;;;4.93;91.0459;928.7814;;;;
2023/04/13 05:26:24;;;;;;;0.5;0.5;;;;;;;4.95;92.29199;928.7817;;;;
2023/04/13 05:28:50;;;;;;;0.7;0.7;;;;;;;5.04;92.97656;928.7952;;;;
2023/04/13 05:31:15;;;;;;;1;0.6;;;;;;;4.92;91.82422;928.8665;;;;
2023/04/13 05:33:40;;;;;;;0.8;0.3;;;;;;;4.77;93.10938;928.9617;;;;
2023/04/13 05:36:07;;;;;;;0.4;0.3;;;;;;;4.7;93.27344;928.9866;;;;
2023/04/13 05:38:33;;;;;;;0.7;0.7;;;;;;;4.67;94.02051;929.0128;;;;
2023/04/13 05:40:58;;;;;;;0.7;0.4;;;;;;;4.65;94.47754;929.0046;;;;
2023/04/13 05:43:25;;;;;;;0.4;0.4;;;;;;;4.56;95.16895;928.9872;;;;
2023/04/13 05:45:50;;;;;;;0.5;0.3;;;;;;;4.51;94.35547;928.957;;;;
2023/04/13 05:48:17;;;;;;;0.3;0.3;;;;;;;4.2;93.84961;929.0433;;;;
2023/04/13 05:50:42;;;;;;;0.6;0.6;;;;;;;4.22;95.20313;929.085;;;;
2023/04/13 05:53:07;;;;;;;0.4;0.4;;;;;;;4.19;95.72754;929.0873;;;;
2023/04/13 05:55:34;;;;;;;0.8;0.8;;;;;;;4.25;96.1582;929.0494;;;;
2023/04/13 05:57:59;;;;;;;0.7;0.5;;;;;;;4.08;95.36426;929.127;;;;
2023/04/13 06:00:25;;;;;;;0.8;0.8;;;;;;;4.16;96.26172;929.2302;;;;
2023/04/13 06:02:50;;;;;;;0.5;0.5;;;;;;;4.3;95.80859;929.1802;;;;
2023/04/13 06:05:15;;;;;;;0.4;0.4;;;;;;;4.25;93.64746;929.1131;;;;
2023/04/13 06:07:43;;;;;;;0.9;0.9;;;;;;;4.28;94.66797;929.1231;;;;
2023/04/13 06:10:07;;;;;;;1.7;1.3;;;;;;;4.46;94.43555;929.091;;;;
2023/04/13 06:12:34;;;;;;;0.9;0.6;;;;;;;4.62;93.9873;929.0767;;;;
2023/04/13 06:15:39;;;;;;;0.8;0.8;;;;;;;4.8;94.3877;929.0489;;;;
2023/04/13 06:18:04;;;;;;;2.8;2.1;;;;;;;4.76;93.96289;929.0522;;;;
2023/04/13 06:20:32;;;;;;;2.9;2.1;;;;;;;4.89;93.12305;929.0506;;;;
2023/04/13 06:23:02;;;;;;;1.6;1.3;;;;;;;4.43;92.76367;929.0054;;;;
2023/04/13 06:25:26;;;;;;;1.2;1.1;;;;;;;4.25;93.5127;928.9689;;;;
2023/04/13 06:27:53;;;;;;;1.4;1.3;;;;;;;4.41;94.86523;928.9933;;;;
2023/04/13 06:30:18;;;;;;;2;1.3;;;;;;;4.65;94.19629;928.9644;;;;
2023/04/13 06:32:44;;;;;;;1.1;1;;;;;;;4.91;93.54395;928.9758;;;;
2023/04/13 06:35:10;;;;;;;0.9;0.8;;;;;;;5.09;91.97168;928.8228;;;;
2023/04/13 06:37:35;;;;;;;1;0.9;;;;;;;5.22;92.05762;928.9409;;;;
2023/04/13 06:40:07;;;;;;;0.8;0.7;;;;;;;5.27;92.2041;928.8484;;;;
2023/04/13 06:42:25;;;;;;;1.3;1;;;;;;;5.38;92.05664;928.8387;;;;
2023/04/13 06:44:52;;;;;;;1.2;1.2;;;;;;;5.42;92.59668;928.9005;;;;
2023/04/13 06:47:17;;;;;;;1;0.8;;;;;;;5.52;92.71973;928.9894;;;;
2023/04/13 06:49:44;;;;;;;0.9;0.9;;;;;;;5.72;92.13086;928.9038;;;;
2023/04/13 06:52:09;;;;;;;1.8;1.7;;;;;;;5.83;90.75293;928.9283;;;;
2023/04/13 06:54:35;;;;;;;0.4;0.4;;;;;;;5.91;88.25391;928.9462;;;;
2023/04/13 06:57:00;;;;;;;1.2;0.5;;;;;;;6.18;88.20605;928.9114;;;;
2023/04/13 06:59:25;;;;;;;0.4;0.4;;;;;;;6.3;87.83398;929.0291;;;;
2023/04/13 07:01:53;;;;;;;0.9;0.8;;;;;;;6.18;86.34082;929.0316;;;;
2023/04/13 07:04:19;;;;;;;0.6;0.6;;;;;;;6.38;86.92383;929.049;;;;
2023/04/13 07:06:47;;;;;;;0.5;0.5;;;;;;;6.66;85.26074;928.9565;;;;
2023/04/13 07:09:12;;;;;;;0.5;0.5;;;;;;;7.16;84.66992;928.8778;;;;
2023/04/13 07:11:37;;;;;;;0.4;0.4;;;;;;;6.94;84.64844;928.7667;;;;
2023/04/13 07:14:02;;;;;;;0.9;0.6;;;;;;;6.98;83.10449;928.8755;;;;
2023/04/13 07:16:30;;;;;;;0.4;0.4;;;;;;;6.89;83.04102;928.8779;;;;
2023/04/13 07:18:55;;;;;;;0.6;0.5;;;;;;;7.2;83.49902;928.8575;;;;
2023/04/13 07:21:22;;;;;;;0.2;0.2;;;;;;;7.35;81.44141;928.8318;;;;
2023/04/13 07:23:47;;;;;;;21.2;8;;;;;;;7.63;81.25879;928.8926;;;;
2023/04/13 07:26:15;;;;;;;4.3;2.3;;;;;;;7.75;82.4375;928.905;;;;
2023/04/13 07:28:40;;;;;;;2.8;2.2;;;;;;;8.01;79.21875;928.9106;;;;
2023/04/13 07:31:06;;;;;;;1.6;1.5;;;;;;;7.95;78.21973;928.8412;;;;
2023/04/13 07:33:31;;;;;;;2.1;1.8;;;;;;;7.57;79.26172;928.808;;;;
2023/04/13 07:35:57;;;;;;;0.4;0.3;;;;;;;7.39;76.08789;928.6974;;;;
2023/04/13 07:38:23;;;;;;;0.4;0.2;;;;;;;7.25;74.9873;928.6982;;;;
2023/04/13 07:40:53;;;;;;;0.3;0.3;;;;;;;7.31;77.00391;928.7405;;;;
2023/04/13 07:43:22;;;;;;;0.2;0.2;;;;;;;7.23;74.9043;928.6909;;;;
2023/04/13 07:45:47;;;;;;;0.7;0.2;;;;;;;7.09;73.63379;928.7302;;;;
2023/04/13 07:48:13;;;;;;;0.3;0.3;;;;;;;7.07;75.52148;928.7609;;;;
2023/04/13 07:50:38;;;;;;;0.4;0.2;;;;;;;7.16;75.83398;928.8201;;;;
2023/04/13 07:53:04;;;;;;;0.3;0.2;;;;;;;7.08;73.87109;928.8639;;;;
2023/04/13 07:55:29;;;;;;;0.4;0.4;;;;;;;7.16;75.85645;928.881;;;;
2023/04/13 07:57:55;;;;;;;1.2;0.5;;;;;;;7.2;76.9502;928.7894;;;;
2023/04/13 08:00:21;;;;;;;0.6;0.6;;;;;;;7.71;77.85938;928.8922;;;;
2023/04/13 08:02:51;;;;;;;0.5;0.5;;;;;;;7.86;76.36523;928.8828;;;;
2023/04/13 08:05:21;;;;;;;0.6;0.5;;;;;;;8.03;75.14746;928.8775;;;;
2023/04/13 08:07:50;;;;;;;0.8;0.8;;;;;;;8.15;75.88281;928.7971;;;;
2023/04/13 08:10:15;;;;;;;0.4;0.4;;;;;;;8.38;74.40234;928.7403;;;;
2023/04/13 08:12:43;;;;;;;0.6;0.5;;;;;;;8.51;73.81055;928.6663;;;;
2023/04/13 08:15:08;;;;;;;0.4;0.4;;;;;;;8.58;73.75391;928.7076;;;;
2023/04/13 08:17:36;;;;;;;0.4;0.4;;;;;;;8.8;74.70117;928.6953;;;;
2023/04/13 08:20:06;;;;;;;0.7;0.3;;;;;;;8.76;72.51172;928.6144;;;;
2023/04/13 08:22:29;;;;;;;0.5;0.5;;;;;;;9.04;71.3623;928.5728;;;;
2023/04/13 08:24:58;;;;;;;0.2;0.2;;;;;;;9.27;69.62598;928.6395;;;;
2023/04/13 08:27:23;;;;;;;0.2;0.2;;;;;;;9.3;69.3584;928.6506;;;;
2023/04/13 08:29:50;;;;;;;0.2;0.2;;;;;;;9.54;67.10645;928.5432;;;;
2023/04/13 08:32:15;;;;;;;1.8;0.5;;;;;;;9.75;66.87793;928.5277;;;;
2023/04/13 08:34:42;;;;;;;0.2;0.2;;;;;;;10.14;64.08594;928.5458;;;;
2023/04/13 08:37:06;;;;;;;1.6;0.2;;;;;;;10.26;64.5127;928.5244;;;;
2023/04/13 08:39:33;;;;;;;0.6;0.2;;;;;;;10.07;63.97266;928.4889;;;;
2023/04/13 08:41:58;;;;;;;0.6;0.3;;;;;;;10.15;62.55859;928.5162;;;;
2023/04/13 08:44:27;;;;;;;0.3;0.3;;;;;;;10.04;60.34082;928.5527;;;;
2023/04/13 08:46:52;;;;;;;0.4;0.3;;;;;;;9.69;67.31152;928.6417;;;;
2023/04/13 08:49:18;;;;;;;0.2;0.2;;;;;;;9.51;64.82227;928.6713;;;;
2023/04/13 08:51:44;;;;;;;0.4;0.4;;;;;;;9.66;65.27832;928.5996;;;;
2023/04/13 08:54:10;;;;;;;0.8;0.4;;;;;;;9.56;64.33105;928.5923;;;;
2023/04/13 08:56:35;;;;;;;0.5;0.5;;;;;;;9.8;63.8418;928.6055;;;;
2023/04/13 08:59:00;;;;;;;0.5;0.5;;;;;;;10.11;65.14063;928.5634;;;;
2023/04/13 09:01:25;;;;;;;1.1;0.5;;;;;;;10.02;61.37695;928.5909;;;;
2023/04/13 09:03:52;;;;;;;0.3;0.3;;;;;;;10.09;61.51172;928.6598;;;;
2023/04/13 09:06:18;;;;;;;0.5;0.5;;;;;;;10.28;63.42188;928.7024;;;;
2023/04/13 09:08:50;;;;;;;0.8;0.6;;;;;;;9.86;61.70605;928.8083;;;;
2023/04/13 09:11:15;;;;;;;0.8;0.6;;;;;;;10.05;63.15918;928.7442;;;;
2023/04/13 09:13:40;;;;;;;0.7;0.7;;;;;;;10.04;62.75879;928.6497;;;;
2023/04/13 09:16:06;;;;;;;1.1;0.6;;;;;;;9.9;65.88379;928.6063;;;;
2023/04/13 09:18:32;;;;;;;0.8;0.5;;;;;;;9.7;67.7793;928.6925;;;;
2023/04/13 09:20:58;;;;;;;0.8;0.6;;;;;;;9.76;69.45508;928.6375;;;;
2023/04/13 09:23:23;;;;;;;2.1;0.9;;;;;;;9.87;69.22168;928.5204;;;;
2023/04/13 09:25:49;;;;;;;0.7;0.6;;;;;;;9.09;68.92676;928.4425;;;;
2023/04/13 09:28:14;;;;;;;0.5;0.4;;;;;;;8.67;64.32227;928.4644;;;;
2023/04/13 09:30:44;;;;;;;2.2;0.6;;;;;;;9.18;66.70898;928.3376;;;;
2023/04/13 09:33:09;;;;;;;0.5;0.5;;;;;;;9.75;67.20703;928.1788;;;;
2023/04/13 09:35:34;;;;;;;0.5;0.4;;;;;;;10.46;61.26758;928.2019;;;;
2023/04/13 09:37:59;;;;;;;1.6;0.5;;;;;;;10.26;62.12988;928.1297;;;;
2023/04/13 09:40:25;;;;;;;0.4;0.4;;;;;;;10.05;64.96094;928.003;;;;
2023/04/13 09:42:49;;;;;;;0.4;0.3;;;;;;;10.33;66.44238;928.0648;;;;
2023/04/13 09:45:15;;;;;;;1;0.5;;;;;;;10.74;65.3623;928.0123;;;;
2023/04/13 09:47:41;;;;;;;0.7;0.5;;;;;;;11.29;60.37891;927.9899;;;;
2023/04/13 09:50:07;;;;;;;1.1;0.6;;;;;;;10.82;57.43457;927.9363;;;;
2023/04/13 09:52:33;;;;;;;0.9;0.7;;;;;;;10.82;61.7627;927.9722;;;;
2023/04/13 09:54:57;;;;;;;1;0.4;;;;;;;11.01;62.19141;927.9434;;;;
2023/04/13 09:57:27;;;;;;;1.4;0.5;;;;;;;11.59;57.75391;927.9863;;;;
2023/04/13 09:59:51;;;;;;;1;0.6;;;;;;;11.75;55.71387;928.0046;;;;
2023/04/13 10:02:20;;;;;;;0.4;0.4;;;;;;;11.75;57.11133;927.9185;;;;
2023/04/13 10:04:45;;;;;;;0.6;0.6;;;;;;;11.74;58.08203;927.9186;;;;
2023/04/13 10:07:12;;;;;;;2.2;0.9;;;;;;;10.78;59.2334;927.875;;;;
2023/04/13 10:09:37;;;;;;;0.6;0.6;;;;;;;10.65;58.69043;927.8571;;;;
2023/04/13 10:12:02;;;;;;;1.3;0.6;;;;;;;10.79;59.69141;927.7922;;;;
2023/04/13 10:14:28;;;;;;;0.5;0.5;;;;;;;10.85;57.44824;927.7633;;;;
2023/04/13 10:16:54;;;;;;;0.8;0.6;;;;;;;10.9;56.15332;927.7269;;;;
2023/04/13 10:19:21;;;;;;;1.6;1.2;;;;;;;10.61;57.31445;927.7106;;;;
2023/04/13 10:21:46;;;;;;;0.9;0.7;;;;;;;10.6;59.99609;927.69;;;;
2023/04/13 10:24:12;;;;;;;1;0.7;;;;;;;10.68;60.52344;927.699;;;;
2023/04/13 10:26:39;;;;;;;1;0.9;;;;;;;10.72;61.25879;927.628;;;;
2023/04/13 10:29:04;;;;;;;1.1;0.8;;;;;;;10.93;58.66016;927.6925;;;;
2023/04/13 10:31:29;;;;;;;0.6;0.6;;;;;;;10.9;57.5127;927.6498;;;;
2023/04/13 10:33:55;;;;;;;1.9;0.8;;;;;;;10.73;56.04004;927.6057;;;;
2023/04/13 10:36:23;;;;;;;0.9;0.6;;;;;;;10.66;55.99609;927.6906;;;;
2023/04/13 10:38:48;;;;;;;0.8;0.6;;;;;;;10.55;56.37109;927.6465;;;;
2023/04/13 10:41:13;;;;;;;0.5;0.5;;;;;;;10.57;56.28125;927.6186;;;;
2023/04/13 10:43:39;;;;;;;1.5;0.6;;;;;;;10.58;58.96582;927.64;;;;
2023/04/13 10:46:04;;;;;;;1;0.6;;;;;;;10.85;59.40332;927.6096;;;;
2023/04/13 10:48:29;;;;;;;0.9;0.5;;;;;;;11.1;56.91113;927.621;;;;
2023/04/13 10:50:54;;;;;;;0.5;0.5;;;;;;;11.32;57.95801;927.6183;;;;
2023/04/13 10:53:19;;;;;;;1.5;0.5;;;;;;;11.17;57.76563;927.5136;;;;
2023/04/13 10:55:45;;;;;;;0.6;0.5;;;;;;;11.14;58.11621;927.6071;;;;
2023/04/13 10:58:10;;;;;;;1.1;0.5;;;;;;;11.2;57.63281;927.5984;;;;
2023/04/13 11:00:35;;;;;;;1;0.5;;;;;;;11.26;56.17676;927.5726;;;;
2023/04/13 11:03:01;;;;;;;1.1;0.5;;;;;;;11.26;55.99316;927.5392;;;;
2023/04/13 11:05:30;;;;;;;0.8;0.5;;;;;;;11.06;55.75195;927.5187;;;;
2023/04/13 11:07:55;;;;;;;1.4;0.4;;;;;;;10.94;56.28418;927.6247;;;;
2023/04/13 11:10:22;;;;;;;0.4;0.4;;;;;;;10.72;53.54785;927.6312;;;;
2023/04/13 11:12:47;;;;;;;1.7;0.5;;;;;;;10.66;53.01563;927.6372;;;;
2023/04/13 11:15:14;;;;;;;0.8;0.6;;;;;;;10.73;51.5166;927.6064;;;;
2023/04/13 11:17:38;;;;;;;1.3;0.5;;;;;;;10.64;54.9209;927.5569;;;;
2023/04/13 11:20:09;;;;;;;1.9;0.6;;;;;;;10.56;55.30957;927.6027;;;;
2023/04/13 11:22:29;;;;;;;0.6;0.5;;;;;;;10.62;52.90723;927.5428;;;;
2023/04/13 11:24:54;;;;;;;0.8;0.4;;;;;;;10.34;53.34082;927.5055;;;;
2023/04/13 11:27:20;;;;;;;3.5;1.7;;;;;;;10.03;52.91504;927.4958;;;;
2023/04/13 11:29:45;;;;;;;2.3;0.9;;;;;;;9.96;53.4541;927.4991;;;;
2023/04/13 11:32:12;;;;;;;2.1;0.4;;;;;;;9.72;53.83496;927.4341;;;;
2023/04/13 11:34:38;;;;;;;0.9;0.5;;;;;;;9.77;54.44434;927.4991;;;;
2023/04/13 11:37:04;;;;;;;0.6;0.4;;;;;;;9.92;54.46387;927.4858;;;;
2023/04/13 11:39:30;;;;;;;1.4;0.5;;;;;;;10.04;54.75391;927.5339;;;;
2023/04/13 11:41:54;;;;;;;1.8;0.6;;;;;;;9.99;53.10547;927.4742;;;;
2023/04/13 11:44:22;;;;;;;0.8;0.5;;;;;;;10.08;53.38867;927.3976;;;;
2023/04/13 11:46:47;;;;;;;1.2;0.7;;;;;;;9.74;51.68359;927.3187;;;;
2023/04/13 11:49:14;;;;;;;2.2;0.6;;;;;;;9.75;54.02051;927.4467;;;;
2023/04/13 11:51:39;;;;;;;1.5;0.7;;;;;;;9.8;52.41895;927.5505;;;;
2023/04/13 11:54:05;;;;;;;0.4;0.4;;;;;;;9.82;54.18945;927.5659;;;;
2023/04/13 11:56:31;;;;;;;0.8;0.4;;;;;;;9.77;55.12891;927.6111;;;;
2023/04/13 11:58:57;;;;;;;1.7;0.5;;;;;;;9.62;55.63379;927.642;;;;
2023/04/13 12:01:21;;;;;;;1.5;0.6;;;;;;;9.57;52.88184;927.6261;;;;
2023/04/13 12:03:47;;;;;;;0.6;0.6;;;;;;;9.53;54.64453;927.7088;;;;
2023/04/13 12:06:15;;;;;;;0.7;0.4;;;;;;;9.72;54.66699;927.7417;;;;
2023/04/13 12:08:40;;;;;;;1.9;0.5;;;;;;;9.69;54.73145;927.6934;;;;
2023/04/13 12:11:06;;;;;;;0.8;0.6;;;;;;;9.64;58.21191;927.7222;;;;
2023/04/13 12:13:31;;;;;;;1.9;1.1;;;;;;;9.72;59.16797;927.7648;;;;
2023/04/13 12:16:01;;;;;;;3.3;1.3;;;;;;;9.71;61.35352;927.764;;;;
2023/04/13 12:18:31;;;;;;;1.4;1.1;;;;;;;9.53;61.22852;927.728;;;;
2023/04/13 12:20:57;;;;;;;1;0.9;;;;;;;9.34;60.52832;927.795;;;;
2023/04/13 12:23:22;;;;;;;2.2;0.5;;;;;;;9.3;54.45508;927.8635;;;;
2023/04/13 12:25:47;;;;;;;6.5;2.8;;;;;;;9.37;59.14453;927.9419;;;;
2023/04/13 12:28:12;;;;;;;5.2;3.8;;;;;;;9.23;59.93262;928.0701;;;;
2023/04/13 12:30:37;;;;;;;2.4;0.9;;;;;;;9.1;55.60059;928.1051;;;;
2023/04/13 12:33:03;;;;;;;1.7;0.7;;;;;;;8.97;54.71973;928.093;;;;
2023/04/13 12:35:29;;;;;;;1;0.6;;;;;;;8.96;56.81152;928.2098;;;;
2023/04/13 12:37:55;;;;;;;1;0.7;;;;;;;8.87;57.17383;928.1519;;;;
2023/04/13 12:40:20;;;;;;;1.3;1.2;;;;;;;8.46;62.82422;928.2639;;;;
2023/04/13 12:42:51;;;;;;;2.7;2;;;;;;;8.1;64.71484;928.2966;;;;
2023/04/13 12:45:18;;;;;;;0.5;0.5;;;;;;;7.73;67.05078;928.4525;;;;
2023/04/13 12:47:43;;;;;;;3.9;2.9;;;;;;;7;72.31738;928.495;;;;
2023/04/13 12:50:14;;;;;;;0.7;0.6;;;;;;;6.42;74.89844;928.4448;;;;
2023/04/13 12:52:41;;;;;;;3.1;0.7;;;;;;;6.23;74.62793;928.5305;;;;
2023/04/13 12:55:06;;;;;;;2.2;1.5;;;;;;;6;74.4873;928.5267;;;;
2023/04/13 12:57:31;;;;;;;2.7;2.1;;;;;;;6.07;72.67969;928.4559;;;;
2023/04/13 12:59:56;;;;;;;3.5;3.2;;;;;;;6.33;74.24902;928.4753;;;;
2023/04/13 13:02:21;;;;;;;1.7;1;;;;;;;6.37;73.43066;928.4219;;;;
2023/04/13 13:04:47;;;;;;;3.8;1.8;;;;;;;6.61;75.77051;928.4697;;;;
2023/04/13 13:07:12;;;;;;;2.8;1;;;;;;;6.83;75.0957;928.4495;;;;
2023/04/13 13:09:37;;;;;;;1.8;0.8;;;;;;;6.55;70.29492;928.4372;;;;
2023/04/13 13:12:03;;;;;;;1.3;1.2;;;;;;;6.89;75.16309;928.457;;;;
2023/04/13 13:14:28;;;;;;;1.9;1;;;;;;;6.91;74.16992;928.4026;;;;
2023/04/13 13:16:55;;;;;;;1.3;0.7;;;;;;;6.78;74.62402;928.3222;;;;
2023/04/13 13:19:20;;;;;;;1.3;0.9;;;;;;;6.77;76.3291;928.2659;;;;
2023/04/13 13:21:48;;;;;;;1.9;1.2;;;;;;;6.53;78.35742;928.3603;;;;
2023/04/13 13:24:13;;;;;;;3.2;2.2;;;;;;;6.51;76.42969;928.3759;;;;
2023/04/13 13:26:38;;;;;;;2.1;1.6;;;;;;;6.66;75.95898;928.3933;;;;
2023/04/13 13:29:04;;;;;;;1.1;1;;;;;;;6.49;75.68066;928.454;;;;
2023/04/13 13:31:30;;;;;;;1;0.9;;;;;;;6.77;75.61523;928.387;;;;
2023/04/13 13:33:56;;;;;;;1.6;1;;;;;;;6.89;75.94434;928.252;;;;
2023/04/13 13:36:21;;;;;;;1.4;0.9;;;;;;;6.92;74.80371;928.2411;;;;
2023/04/13 13:38:46;;;;;;;0.9;0.8;;;;;;;7.28;75.33203;928.3429;;;;
2023/04/13 13:41:11;;;;;;;1.8;1;;;;;;;7.15;73.30566;928.269;;;;
2023/04/13 13:43:36;;;;;;;1.7;0.9;;;;;;;7.57;73.28809;928.1514;;;;
2023/04/13 13:46:01;;;;;;;1.8;0.9;;;;;;;7.4;70.62695;928.155;;;;
2023/04/13 13:48:28;;;;;;;2.2;1.3;;;;;;;6.9;73.14941;928.2498;;;;
2023/04/13 13:50:54;;;;;;;1.3;1;;;;;;;7.17;74.05664;928.2558;;;;
2023/04/13 13:53:19;;;;;;;1.6;1.1;;;;;;;7.71;76.53027;928.2766;;;;
2023/04/13 13:55:44;;;;;;;2.5;2.1;;;;;;;8.09;73.18262;928.2522;;;;
2023/04/13 13:58:11;;;;;;;3;2;;;;;;;8.21;71.70313;928.2266;;;;
2023/04/13 14:00:36;;;;;;;2.4;0.7;;;;;;;7.88;66.39355;928.2466;;;;
2023/04/13 14:03:04;;;;;;;2;1.1;;;;;;;7.82;69.49316;928.2241;;;;
2023/04/13 14:05:29;;;;;;;1.1;0.9;;;;;;;7.96;68.37012;928.326;;;;
2023/04/13 14:07:54;;;;;;;2;0.9;;;;;;;8.17;68.99316;928.2397;;;;
2023/04/13 14:10:20;;;;;;;56.6;23.3;;;;;;;7.81;67.72168;928.2693;;;;
2023/04/13 14:12:48;;;;;;;1.3;1;;;;;;;8.09;66.92578;928.2371;;;;
2023/04/13 14:15:13;;;;;;;50.1;19.5;;;;;;;7.97;68.33594;928.2903;;;;
2023/04/13 14:17:38;;;;;;;1.6;0.8;;;;;;;8.28;68.375;928.1822;;;;
2023/04/13 14:20:05;;;;;;;3.4;1.6;;;;;;;8.32;66.05371;928.08;;;;
2023/04/13 14:22:31;;;;;;;1.5;1;;;;;;;8.07;67.58105;927.9627;;;;
2023/04/13 14:24:57;;;;;;;1.6;1.2;;;;;;;7.87;67.43652;927.92;;;;
2023/04/13 14:27:22;;;;;;;1.6;1;;;;;;;7.96;67.58691;927.8585;;;;
2023/04/13 14:29:47;;;;;;;1.1;0.8;;;;;;;7.89;66.58984;927.832;;;;
2023/04/13 14:32:15;;;;;;;3.8;2.8;;;;;;;7.98;66.93262;927.8639;;;;
2023/04/13 14:34:40;;;;;;;0.8;0.7;;;;;;;8.3;64.82227;927.8801;;;;
2023/04/13 14:37:08;;;;;;;18.8;12.2;;;;;;;8.14;64.32227;927.8725;;;;
2023/04/13 14:39:32;;;;;;;1.3;1.1;;;;;;;8.3;65.58301;927.8293;;;;
2023/04/13 14:42:01;;;;;;;1;0.9;;;;;;;8.65;65.6709;927.7192;;;;
2023/04/13 14:44:26;;;;;;;2.3;0.8;;;;;;;8.7;65.45215;927.678;;;;
2023/04/13 14:46:52;;;;;;;2;0.9;;;;;;;8.48;64.33789;927.8547;;;;
2023/04/13 14:49:17;;;;;;;10.4;6.8;;;;;;;8.39;64.50781;927.9431;;;;
2023/04/13 14:51:42;;;;;;;5.4;3.5;;;;;;;8.29;64.83398;928.0094;;;;
2023/04/13 14:54:07;;;;;;;11.2;7.2;;;;;;;8.29;63.19824;927.949;;;;
2023/04/13 14:56:33;;;;;;;1.7;0.9;;;;;;;8.39;65.15527;927.8979;;;;
2023/04/13 14:58:58;;;;;;;1.7;1;;;;;;;8.58;65.83203;927.7776;;;;
2023/04/13 15:01:26;;;;;;;1.4;1;;;;;;;8.7;66.55469;927.8906;;;;
2023/04/13 15:03:51;;;;;;;6.9;5.5;;;;;;;8.53;61.28906;928.0022;;;;
2023/04/13 15:06:18;;;;;;;1.4;1.1;;;;;;;8;62.56445;928.1002;;;;
2023/04/13 15:08:43;;;;;;;3.2;1.2;;;;;;;7.85;61.46387;928.1292;;;;
2023/04/13 15:11:08;;;;;;;3.1;2.8;;;;;;;7.88;61.5498;928.1024;;;;
2023/04/13 15:13:33;;;;;;;7.4;3.6;;;;;;;7.78;61.55664;928.0938;;;;
2023/04/13 15:16:00;;;;;;;1.6;1.3;;;;;;;7.88;62.02637;928.0952;;;;
2023/04/13 15:18:25;;;;;;;5.9;3.3;;;;;;;7.93;66.94727;928.0549;;;;
2023/04/13 15:20:51;;;;;;;17.1;9.8;;;;;;;7.86;64.89355;928.1878;;;;
2023/04/13 15:23:16;;;;;;;9.6;5.1;;;;;;;7.8;66.97168;928.2134;;;;
2023/04/13 15:25:42;;;;;;;8.7;4.1;;;;;;;7.58;66.66504;928.2131;;;;
2023/04/13 15:28:09;;;;;;;10.8;5.8;;;;;;;7.38;71.50684;928.1486;;;;
2023/04/13 15:30:37;;;;;;;2.8;0.8;;;;;;;6.97;71.80176;928.0967;;;;
2023/04/13 15:33:02;;;;;;;1;0.8;;;;;;;6.49;71.67773;928.1861;;;;
2023/04/13 15:35:28;;;;;;;1.5;1.3;;;;;;;6.67;73.91309;928.251;;;;
2023/04/13 15:37:53;;;;;;;6.2;3.1;;;;;;;6.83;73.39746;928.2106;;;;
2023/04/13 15:40:19;;;;;;;3.9;1.5;;;;;;;6.77;70.1709;928.2399;;;;